sensor_id;sensor_type;location;lat;lon;timestamp;P1;durP1;ratioP1;P2;durP2;ratioP2
15677;SDS011;7939;50.814;6.368;2023-07-20T00:01:29;3.08;;;2.60;;
15677;SDS011;7939;50.814;6.368;2023-07-20T00:03:56;3.85;;;2.40;;
15677;SDS011;7939;50.814;6.368;2023-07-20T00:06:24;3.70;;;2.58;;
15677;SDS011;7939;50.814;6.368;2023-07-20T00:08:52;3.08;;;2.03;;
15677;SDS011;7939;50.814;6.368;2023-07-20T00:11:19;2.33;;;2.13;;
15677;SDS011;7939;50.814;6.368;2023-07-20T00:13:46;6.70;;;2.67;;
15677;SDS011;7939;50.814;6.368;2023-07-20T00:16:13;3.15;;;2.42;;
15677;SDS011;7939;50.814;6.368;2023-07-20T00:18:40;2.97;;;2.42;;
15677;SDS011;7939;50.814;6.368;2023-07-20T00:21:06;7.03;;;2.92;;
15677;SDS011;7939;50.814;6.368;2023-07-20T00:23:34;3.92;;;2.85;;
15677;SDS011;7939;50.814;6.368;2023-07-20T00:26:01;6.75;;;3.15;;
15677;SDS011;7939;50.814;6.368;2023-07-20T00:28:27;5.22;;;3.20;;
15677;SDS011;7939;50.814;6.368;2023-07-20T00:30:54;4.63;;;3.13;;
15677;SDS011;7939;50.814;6.368;2023-07-20T00:33:21;6.70;;;3.05;;
15677;SDS011;7939;50.814;6.368;2023-07-20T00:35:48;6.63;;;3.03;;
15677;SDS011;7939;50.814;6.368;2023-07-20T00:38:15;4.45;;;2.92;;
15677;SDS011;7939;50.814;6.368;2023-07-20T00:40:43;4.63;;;3.03;;
15677;SDS011;7939;50.814;6.368;2023-07-20T00:43:10;6.75;;;3.30;;
15677;SDS011;7939;50.814;6.368;2023-07-20T00:45:36;5.50;;;3.10;;
15677;SDS011;7939;50.814;6.368;2023-07-20T00:48:04;5.40;;;3.10;;
15677;SDS011;7939;50.814;6.368;2023-07-20T00:50:33;5.18;;;3.10;;
15677;SDS011;7939;50.814;6.368;2023-07-20T00:53:00;6.32;;;3.20;;
15677;SDS011;7939;50.814;6.368;2023-07-20T00:55:30;6.45;;;3.63;;
15677;SDS011;7939;50.814;6.368;2023-07-20T00:57:58;5.22;;;3.42;;
15677;SDS011;7939;50.814;6.368;2023-07-20T01:00:26;4.30;;;3.05;;
15677;SDS011;7939;50.814;6.368;2023-07-20T01:02:53;3.35;;;3.03;;
15677;SDS011;7939;50.814;6.368;2023-07-20T01:05:20;5.28;;;3.33;;
15677;SDS011;7939;50.814;6.368;2023-07-20T01:07:50;7.00;;;3.13;;
15677;SDS011;7939;50.814;6.368;2023-07-20T01:10:25;5.55;;;3.17;;
15677;SDS011;7939;50.814;6.368;2023-07-20T01:12:55;4.85;;;2.97;;
15677;SDS011;7939;50.814;6.368;2023-07-20T01:15:24;5.32;;;3.15;;
15677;SDS011;7939;50.814;6.368;2023-07-20T01:17:51;4.88;;;3.33;;
15677;SDS011;7939;50.814;6.368;2023-07-20T01:20:18;7.22;;;3.05;;
15677;SDS011;7939;50.814;6.368;2023-07-20T01:22:50;4.78;;;3.03;;
15677;SDS011;7939;50.814;6.368;2023-07-20T01:25:34;4.78;;;2.97;;
15677;SDS011;7939;50.814;6.368;2023-07-20T01:31:24;4.75;;;3.17;;
15677;SDS011;7939;50.814;6.368;2023-07-20T01:33:53;6.50;;;3.28;;
15677;SDS011;7939;50.814;6.368;2023-07-20T01:36:22;6.93;;;2.85;;
15677;SDS011;7939;50.814;6.368;2023-07-20T01:38:51;3.97;;;3.05;;
15677;SDS011;7939;50.814;6.368;2023-07-20T01:41:18;5.78;;;3.80;;
15677;SDS011;7939;50.814;6.368;2023-07-20T01:43:46;5.32;;;3.03;;
15677;SDS011;7939;50.814;6.368;2023-07-20T01:46:13;4.25;;;3.17;;
15677;SDS011;7939;50.814;6.368;2023-07-20T01:48:41;4.88;;;3.25;;
15677;SDS011;7939;50.814;6.368;2023-07-20T01:51:07;7.07;;;2.92;;
15677;SDS011;7939;50.814;6.368;2023-07-20T01:53:34;4.30;;;2.83;;
15677;SDS011;7939;50.814;6.368;2023-07-20T01:56:01;6.07;;;2.97;;
15677;SDS011;7939;50.814;6.368;2023-07-20T01:58:28;5.35;;;3.13;;
15677;SDS011;7939;50.814;6.368;2023-07-20T02:00:55;4.10;;;3.17;;
15677;SDS011;7939;50.814;6.368;2023-07-20T02:03:21;6.30;;;2.78;;
15677;SDS011;7939;50.814;6.368;2023-07-20T02:05:52;4.57;;;2.80;;
15677;SDS011;7939;50.814;6.368;2023-07-20T02:08:18;4.47;;;2.53;;
15677;SDS011;7939;50.814;6.368;2023-07-20T02:10:45;6.00;;;3.10;;
15677;SDS011;7939;50.814;6.368;2023-07-20T02:13:13;4.35;;;3.00;;
15677;SDS011;7939;50.814;6.368;2023-07-20T02:15:40;5.28;;;3.03;;
15677;SDS011;7939;50.814;6.368;2023-07-20T02:18:07;4.03;;;2.55;;
15677;SDS011;7939;50.814;6.368;2023-07-20T02:20:34;4.07;;;2.90;;
15677;SDS011;7939;50.814;6.368;2023-07-20T02:23:02;4.63;;;2.70;;
15677;SDS011;7939;50.814;6.368;2023-07-20T02:25:28;4.18;;;2.78;;
15677;SDS011;7939;50.814;6.368;2023-07-20T02:27:55;5.15;;;2.63;;
15677;SDS011;7939;50.814;6.368;2023-07-20T02:30:23;4.60;;;2.65;;
15677;SDS011;7939;50.814;6.368;2023-07-20T02:32:49;4.25;;;2.88;;
15677;SDS011;7939;50.814;6.368;2023-07-20T02:35:16;6.28;;;3.28;;
15677;SDS011;7939;50.814;6.368;2023-07-20T02:37:43;5.40;;;3.20;;
15677;SDS011;7939;50.814;6.368;2023-07-20T02:40:12;3.58;;;2.53;;
15677;SDS011;7939;50.814;6.368;2023-07-20T02:42:38;4.80;;;2.97;;
15677;SDS011;7939;50.814;6.368;2023-07-20T02:45:05;4.30;;;3.22;;
15677;SDS011;7939;50.814;6.368;2023-07-20T02:47:33;3.90;;;2.83;;
15677;SDS011;7939;50.814;6.368;2023-07-20T02:49:59;3.25;;;2.50;;
15677;SDS011;7939;50.814;6.368;2023-07-20T02:52:26;6.78;;;3.20;;
15677;SDS011;7939;50.814;6.368;2023-07-20T02:54:54;4.57;;;2.80;;
15677;SDS011;7939;50.814;6.368;2023-07-20T02:57:22;5.13;;;2.95;;
15677;SDS011;7939;50.814;6.368;2023-07-20T02:59:49;3.92;;;2.45;;
15677;SDS011;7939;50.814;6.368;2023-07-20T03:02:15;4.13;;;3.35;;
15677;SDS011;7939;50.814;6.368;2023-07-20T03:04:42;4.43;;;2.78;;
15677;SDS011;7939;50.814;6.368;2023-07-20T03:07:08;7.00;;;2.88;;
15677;SDS011;7939;50.814;6.368;2023-07-20T03:09:35;5.07;;;2.90;;
15677;SDS011;7939;50.814;6.368;2023-07-20T03:12:02;3.47;;;2.25;;
15677;SDS011;7939;50.814;6.368;2023-07-20T03:14:31;3.83;;;2.40;;
15677;SDS011;7939;50.814;6.368;2023-07-20T03:16:58;4.70;;;3.00;;
15677;SDS011;7939;50.814;6.368;2023-07-20T03:19:24;5.88;;;2.65;;
15677;SDS011;7939;50.814;6.368;2023-07-20T03:21:51;6.93;;;2.83;;
15677;SDS011;7939;50.814;6.368;2023-07-20T03:24:17;4.88;;;2.83;;
15677;SDS011;7939;50.814;6.368;2023-07-20T03:26:44;7.10;;;3.47;;
15677;SDS011;7939;50.814;6.368;2023-07-20T03:29:11;3.25;;;2.78;;
15677;SDS011;7939;50.814;6.368;2023-07-20T03:31:39;5.07;;;2.80;;
15677;SDS011;7939;50.814;6.368;2023-07-20T03:34:06;4.82;;;2.28;;
15677;SDS011;7939;50.814;6.368;2023-07-20T03:36:33;6.68;;;2.80;;
15677;SDS011;7939;50.814;6.368;2023-07-20T03:39:00;5.25;;;3.00;;
15677;SDS011;7939;50.814;6.368;2023-07-20T03:41:28;5.22;;;2.75;;
15677;SDS011;7939;50.814;6.368;2023-07-20T03:43:54;4.93;;;3.00;;
15677;SDS011;7939;50.814;6.368;2023-07-20T03:46:21;4.95;;;3.00;;
15677;SDS011;7939;50.814;6.368;2023-07-20T03:48:49;4.82;;;2.53;;
15677;SDS011;7939;50.814;6.368;2023-07-20T03:51:16;6.43;;;2.97;;
15677;SDS011;7939;50.814;6.368;2023-07-20T03:53:42;4.75;;;2.88;;
15677;SDS011;7939;50.814;6.368;2023-07-20T03:56:09;4.78;;;2.67;;
15677;SDS011;7939;50.814;6.368;2023-07-20T03:58:35;3.72;;;2.40;;
15677;SDS011;7939;50.814;6.368;2023-07-20T04:01:02;5.65;;;3.38;;
15677;SDS011;7939;50.814;6.368;2023-07-20T04:03:28;5.05;;;2.35;;
15677;SDS011;7939;50.814;6.368;2023-07-20T04:05:57;5.13;;;2.85;;
15677;SDS011;7939;50.814;6.368;2023-07-20T04:08:23;5.30;;;3.10;;
15677;SDS011;7939;50.814;6.368;2023-07-20T04:10:51;4.50;;;2.95;;
15677;SDS011;7939;50.814;6.368;2023-07-20T04:13:17;6.65;;;3.00;;
15677;SDS011;7939;50.814;6.368;2023-07-20T04:15:44;6.47;;;2.70;;
15677;SDS011;7939;50.814;6.368;2023-07-20T04:18:11;6.20;;;2.92;;
15677;SDS011;7939;50.814;6.368;2023-07-20T04:20:38;4.70;;;2.95;;
15677;SDS011;7939;50.814;6.368;2023-07-20T04:23:06;5.72;;;3.20;;
15677;SDS011;7939;50.814;6.368;2023-07-20T04:25:32;5.63;;;2.88;;
15677;SDS011;7939;50.814;6.368;2023-07-20T04:28:04;4.38;;;3.00;;
15677;SDS011;7939;50.814;6.368;2023-07-20T04:30:33;3.70;;;2.95;;
15677;SDS011;7939;50.814;6.368;2023-07-20T04:33:00;7.32;;;3.22;;
15677;SDS011;7939;50.814;6.368;2023-07-20T04:38:14;4.72;;;3.03;;
15677;SDS011;7939;50.814;6.368;2023-07-20T04:40:42;4.57;;;3.10;;
15677;SDS011;7939;50.814;6.368;2023-07-20T04:43:10;5.78;;;3.13;;
15677;SDS011;7939;50.814;6.368;2023-07-20T04:45:36;6.63;;;3.80;;
15677;SDS011;7939;50.814;6.368;2023-07-20T04:48:03;5.53;;;3.60;;
15677;SDS011;7939;50.814;6.368;2023-07-20T04:50:32;6.28;;;3.42;;
15677;SDS011;7939;50.814;6.368;2023-07-20T04:52:58;7.03;;;3.25;;
15677;SDS011;7939;50.814;6.368;2023-07-20T04:55:28;7.20;;;3.53;;
15677;SDS011;7939;50.814;6.368;2023-07-20T04:57:55;6.05;;;3.40;;
15677;SDS011;7939;50.814;6.368;2023-07-20T05:00:21;4.63;;;3.40;;
15677;SDS011;7939;50.814;6.368;2023-07-20T05:02:48;5.68;;;3.60;;
15677;SDS011;7939;50.814;6.368;2023-07-20T05:05:15;6.80;;;3.78;;
15677;SDS011;7939;50.814;6.368;2023-07-20T05:07:42;6.97;;;3.92;;
15677;SDS011;7939;50.814;6.368;2023-07-20T05:10:09;7.95;;;3.97;;
15677;SDS011;7939;50.814;6.368;2023-07-20T05:12:37;5.75;;;3.63;;
15677;SDS011;7939;50.814;6.368;2023-07-20T05:15:04;7.05;;;3.80;;
15677;SDS011;7939;50.814;6.368;2023-07-20T05:17:31;9.52;;;3.92;;
15677;SDS011;7939;50.814;6.368;2023-07-20T05:19:58;5.90;;;3.78;;
15677;SDS011;7939;50.814;6.368;2023-07-20T05:22:24;7.32;;;4.30;;
15677;SDS011;7939;50.814;6.368;2023-07-20T05:24:51;10.00;;;4.38;;
15677;SDS011;7939;50.814;6.368;2023-07-20T05:27:18;7.25;;;3.75;;
15677;SDS011;7939;50.814;6.368;2023-07-20T05:29:46;7.20;;;4.80;;
15677;SDS011;7939;50.814;6.368;2023-07-20T05:32:13;6.25;;;4.18;;
15677;SDS011;7939;50.814;6.368;2023-07-20T05:34:39;6.53;;;4.10;;
15677;SDS011;7939;50.814;6.368;2023-07-20T05:37:06;5.10;;;3.53;;
15677;SDS011;7939;50.814;6.368;2023-07-20T05:39:38;6.20;;;3.60;;
15677;SDS011;7939;50.814;6.368;2023-07-20T05:42:04;6.75;;;4.43;;
15677;SDS011;7939;50.814;6.368;2023-07-20T05:44:32;8.45;;;4.70;;
15677;SDS011;7939;50.814;6.368;2023-07-20T05:47:00;10.30;;;4.35;;
15677;SDS011;7939;50.814;6.368;2023-07-20T05:49:27;6.97;;;4.10;;
15677;SDS011;7939;50.814;6.368;2023-07-20T05:51:54;8.65;;;5.00;;
15677;SDS011;7939;50.814;6.368;2023-07-20T05:54:22;6.28;;;5.10;;
15677;SDS011;7939;50.814;6.368;2023-07-20T05:56:49;9.02;;;5.57;;
15677;SDS011;7939;50.814;6.368;2023-07-20T05:59:16;9.15;;;4.72;;
15677;SDS011;7939;50.814;6.368;2023-07-20T06:01:44;7.22;;;4.90;;
15677;SDS011;7939;50.814;6.368;2023-07-20T06:04:13;6.95;;;5.20;;
15677;SDS011;7939;50.814;6.368;2023-07-20T06:06:40;6.68;;;4.88;;
15677;SDS011;7939;50.814;6.368;2023-07-20T06:09:06;8.43;;;4.57;;
15677;SDS011;7939;50.814;6.368;2023-07-20T06:11:37;6.72;;;4.65;;
15677;SDS011;7939;50.814;6.368;2023-07-20T06:14:03;6.78;;;5.15;;
15677;SDS011;7939;50.814;6.368;2023-07-20T06:16:30;8.75;;;5.70;;
15677;SDS011;7939;50.814;6.368;2023-07-20T06:18:58;7.70;;;5.70;;
15677;SDS011;7939;50.814;6.368;2023-07-20T06:21:27;9.65;;;6.40;;
15677;SDS011;7939;50.814;6.368;2023-07-20T06:23:54;6.93;;;5.75;;
15677;SDS011;7939;50.814;6.368;2023-07-20T06:26:20;7.78;;;5.20;;
15677;SDS011;7939;50.814;6.368;2023-07-20T06:28:47;9.32;;;6.38;;
15677;SDS011;7939;50.814;6.368;2023-07-20T06:31:14;8.52;;;6.00;;
15677;SDS011;7939;50.814;6.368;2023-07-20T06:33:41;10.35;;;5.60;;
15677;SDS011;7939;50.814;6.368;2023-07-20T06:36:07;10.30;;;4.72;;
15677;SDS011;7939;50.814;6.368;2023-07-20T06:38:36;11.48;;;6.15;;
15677;SDS011;7939;50.814;6.368;2023-07-20T06:41:02;8.63;;;5.85;;
15677;SDS011;7939;50.814;6.368;2023-07-20T06:43:29;7.20;;;5.72;;
15677;SDS011;7939;50.814;6.368;2023-07-20T06:45:55;7.72;;;6.00;;
15677;SDS011;7939;50.814;6.368;2023-07-20T06:48:22;7.78;;;5.70;;
15677;SDS011;7939;50.814;6.368;2023-07-20T06:50:49;7.38;;;6.10;;
15677;SDS011;7939;50.814;6.368;2023-07-20T06:53:15;9.98;;;6.45;;
15677;SDS011;7939;50.814;6.368;2023-07-20T06:55:44;11.27;;;6.82;;
15677;SDS011;7939;50.814;6.368;2023-07-20T06:58:11;13.10;;;6.75;;
15677;SDS011;7939;50.814;6.368;2023-07-20T07:00:38;11.98;;;7.45;;
15677;SDS011;7939;50.814;6.368;2023-07-20T07:03:04;10.35;;;7.18;;
15677;SDS011;7939;50.814;6.368;2023-07-20T07:05:36;12.80;;;6.68;;
15677;SDS011;7939;50.814;6.368;2023-07-20T07:08:03;10.10;;;6.47;;
15677;SDS011;7939;50.814;6.368;2023-07-20T07:10:30;11.70;;;6.78;;
15677;SDS011;7939;50.814;6.368;2023-07-20T07:12:59;11.10;;;6.22;;
15677;SDS011;7939;50.814;6.368;2023-07-20T07:15:26;8.50;;;5.78;;
15677;SDS011;7939;50.814;6.368;2023-07-20T07:17:53;9.45;;;6.93;;
15677;SDS011;7939;50.814;6.368;2023-07-20T07:20:19;9.68;;;6.78;;
15677;SDS011;7939;50.814;6.368;2023-07-20T07:22:46;8.30;;;6.10;;
15677;SDS011;7939;50.814;6.368;2023-07-20T07:25:13;8.40;;;5.88;;
15677;SDS011;7939;50.814;6.368;2023-07-20T07:27:40;6.50;;;5.38;;
15677;SDS011;7939;50.814;6.368;2023-07-20T07:30:09;6.20;;;5.45;;
15677;SDS011;7939;50.814;6.368;2023-07-20T07:32:36;6.78;;;5.10;;
15677;SDS011;7939;50.814;6.368;2023-07-20T07:35:03;7.95;;;5.75;;
15677;SDS011;7939;50.814;6.368;2023-07-20T07:37:30;5.82;;;4.90;;
15677;SDS011;7939;50.814;6.368;2023-07-20T07:39:57;7.25;;;4.97;;
15677;SDS011;7939;50.814;6.368;2023-07-20T07:42:23;4.07;;;3.67;;
15677;SDS011;7939;50.814;6.368;2023-07-20T07:44:50;8.88;;;5.82;;
15677;SDS011;7939;50.814;6.368;2023-07-20T07:47:18;4.55;;;4.15;;
15677;SDS011;7939;50.814;6.368;2023-07-20T07:49:44;6.72;;;4.72;;
15677;SDS011;7939;50.814;6.368;2023-07-20T07:52:11;4.65;;;3.75;;
15677;SDS011;7939;50.814;6.368;2023-07-20T07:54:39;8.00;;;4.75;;
15677;SDS011;7939;50.814;6.368;2023-07-20T07:57:06;5.72;;;3.55;;
15677;SDS011;7939;50.814;6.368;2023-07-20T07:59:32;4.05;;;3.65;;
15677;SDS011;7939;50.814;6.368;2023-07-20T08:02:01;5.82;;;4.00;;
15677;SDS011;7939;50.814;6.368;2023-07-20T08:04:30;5.43;;;4.03;;
15677;SDS011;7939;50.814;6.368;2023-07-20T08:06:57;5.38;;;4.10;;
15677;SDS011;7939;50.814;6.368;2023-07-20T08:09:24;6.20;;;3.67;;
15677;SDS011;7939;50.814;6.368;2023-07-20T08:11:50;4.10;;;3.40;;
15677;SDS011;7939;50.814;6.368;2023-07-20T08:14:17;3.92;;;3.33;;
15677;SDS011;7939;50.814;6.368;2023-07-20T08:16:44;3.90;;;2.90;;
15677;SDS011;7939;50.814;6.368;2023-07-20T08:19:11;4.57;;;3.08;;
15677;SDS011;7939;50.814;6.368;2023-07-20T08:21:39;3.63;;;3.05;;
15677;SDS011;7939;50.814;6.368;2023-07-20T08:24:05;4.07;;;3.05;;
15677;SDS011;7939;50.814;6.368;2023-07-20T08:26:32;4.15;;;3.53;;
15677;SDS011;7939;50.814;6.368;2023-07-20T08:28:59;4.47;;;3.20;;
15677;SDS011;7939;50.814;6.368;2023-07-20T08:31:25;7.93;;;3.50;;
15677;SDS011;7939;50.814;6.368;2023-07-20T08:33:53;4.25;;;3.10;;
15677;SDS011;7939;50.814;6.368;2023-07-20T08:36:22;3.40;;;2.58;;
15677;SDS011;7939;50.814;6.368;2023-07-20T08:38:50;3.13;;;2.35;;
15677;SDS011;7939;50.814;6.368;2023-07-20T08:41:17;3.92;;;3.20;;
15677;SDS011;7939;50.814;6.368;2023-07-20T08:43:45;7.45;;;3.70;;
15677;SDS011;7939;50.814;6.368;2023-07-20T08:46:13;5.72;;;3.80;;
15677;SDS011;7939;50.814;6.368;2023-07-20T08:48:42;5.45;;;3.17;;
15677;SDS011;7939;50.814;6.368;2023-07-20T08:51:10;4.50;;;3.08;;
15677;SDS011;7939;50.814;6.368;2023-07-20T08:53:38;3.83;;;2.78;;
15677;SDS011;7939;50.814;6.368;2023-07-20T08:56:06;5.30;;;2.58;;
15677;SDS011;7939;50.814;6.368;2023-07-20T08:58:36;5.22;;;2.28;;
15677;SDS011;7939;50.814;6.368;2023-07-20T09:01:04;3.13;;;2.22;;
15677;SDS011;7939;50.814;6.368;2023-07-20T09:03:31;2.25;;;2.05;;
15677;SDS011;7939;50.814;6.368;2023-07-20T09:05:57;2.40;;;2.05;;
15677;SDS011;7939;50.814;6.368;2023-07-20T09:08:25;3.33;;;2.15;;
15677;SDS011;7939;50.814;6.368;2023-07-20T09:10:51;4.97;;;2.88;;
15677;SDS011;7939;50.814;6.368;2023-07-20T09:13:19;4.43;;;2.30;;
15677;SDS011;7939;50.814;6.368;2023-07-20T09:15:46;2.47;;;2.20;;
15677;SDS011;7939;50.814;6.368;2023-07-20T09:18:14;5.25;;;2.20;;
15677;SDS011;7939;50.814;6.368;2023-07-20T09:20:49;6.32;;;2.35;;
15677;SDS011;7939;50.814;6.368;2023-07-20T09:23:16;2.70;;;2.30;;
15677;SDS011;7939;50.814;6.368;2023-07-20T09:25:43;2.97;;;2.40;;
15677;SDS011;7939;50.814;6.368;2023-07-20T09:28:11;3.47;;;2.53;;
15677;SDS011;7939;50.814;6.368;2023-07-20T09:30:39;3.63;;;2.47;;
15677;SDS011;7939;50.814;6.368;2023-07-20T09:33:05;2.60;;;2.20;;
15677;SDS011;7939;50.814;6.368;2023-07-20T09:35:44;3.97;;;2.08;;
15677;SDS011;7939;50.814;6.368;2023-07-20T09:38:11;2.60;;;2.10;;
15677;SDS011;7939;50.814;6.368;2023-07-20T09:40:38;3.28;;;2.10;;
15677;SDS011;7939;50.814;6.368;2023-07-20T09:43:07;2.40;;;2.20;;
15677;SDS011;7939;50.814;6.368;2023-07-20T09:45:34;5.82;;;2.03;;
15677;SDS011;7939;50.814;6.368;2023-07-20T09:48:07;2.38;;;2.13;;
15677;SDS011;7939;50.814;6.368;2023-07-20T09:50:38;6.78;;;2.53;;
15677;SDS011;7939;50.814;6.368;2023-07-20T09:53:06;3.97;;;2.42;;
15677;SDS011;7939;50.814;6.368;2023-07-20T09:55:33;2.65;;;2.33;;
15677;SDS011;7939;50.814;6.368;2023-07-20T09:58:01;2.72;;;2.10;;
15677;SDS011;7939;50.814;6.368;2023-07-20T10:00:29;2.72;;;2.35;;
15677;SDS011;7939;50.814;6.368;2023-07-20T10:02:55;3.88;;;2.58;;
15677;SDS011;7939;50.814;6.368;2023-07-20T10:05:25;3.08;;;2.63;;
15677;SDS011;7939;50.814;6.368;2023-07-20T10:07:59;4.75;;;2.70;;
15677;SDS011;7939;50.814;6.368;2023-07-20T10:10:27;4.82;;;2.55;;
15677;SDS011;7939;50.814;6.368;2023-07-20T10:12:56;3.25;;;2.47;;
15677;SDS011;7939;50.814;6.368;2023-07-20T10:15:28;3.33;;;2.33;;
15677;SDS011;7939;50.814;6.368;2023-07-20T10:17:59;2.55;;;2.20;;
15677;SDS011;7939;50.814;6.368;2023-07-20T10:20:34;4.22;;;2.70;;
15677;SDS011;7939;50.814;6.368;2023-07-20T10:23:03;3.72;;;2.10;;
15677;SDS011;7939;50.814;6.368;2023-07-20T10:25:30;2.63;;;2.20;;
15677;SDS011;7939;50.814;6.368;2023-07-20T10:27:58;4.38;;;2.35;;
15677;SDS011;7939;50.814;6.368;2023-07-20T10:30:26;3.63;;;2.28;;
15677;SDS011;7939;50.814;6.368;2023-07-20T10:32:53;2.25;;;1.90;;
15677;SDS011;7939;50.814;6.368;2023-07-20T10:35:20;4.07;;;2.15;;
15677;SDS011;7939;50.814;6.368;2023-07-20T10:37:52;2.20;;;2.00;;
15677;SDS011;7939;50.814;6.368;2023-07-20T10:40:27;2.60;;;1.85;;
15677;SDS011;7939;50.814;6.368;2023-07-20T10:42:59;4.60;;;2.10;;
15677;SDS011;7939;50.814;6.368;2023-07-20T10:45:39;2.13;;;1.88;;
15677;SDS011;7939;50.814;6.368;2023-07-20T10:48:12;2.60;;;1.83;;
15677;SDS011;7939;50.814;6.368;2023-07-20T10:50:41;4.45;;;1.70;;
15677;SDS011;7939;50.814;6.368;2023-07-20T10:53:12;12.10;;;2.60;;
15677;SDS011;7939;50.814;6.368;2023-07-20T10:55:40;2.95;;;2.08;;
15677;SDS011;7939;50.814;6.368;2023-07-20T10:58:09;2.05;;;1.85;;
15677;SDS011;7939;50.814;6.368;2023-07-20T11:00:37;2.42;;;1.45;;
15677;SDS011;7939;50.814;6.368;2023-07-20T11:03:26;2.10;;;1.60;;
15677;SDS011;7939;50.814;6.368;2023-07-20T11:05:54;2.28;;;2.08;;
15677;SDS011;7939;50.814;6.368;2023-07-20T11:08:38;2.70;;;2.28;;
15677;SDS011;7939;50.814;6.368;2023-07-20T11:11:22;2.85;;;2.35;;
15677;SDS011;7939;50.814;6.368;2023-07-20T11:13:56;8.10;;;3.13;;
15677;SDS011;7939;50.814;6.368;2023-07-20T11:16:37;2.10;;;1.65;;
15677;SDS011;7939;50.814;6.368;2023-07-20T11:19:05;2.65;;;1.73;;
15677;SDS011;7939;50.814;6.368;2023-07-20T11:21:40;4.30;;;2.10;;
15677;SDS011;7939;50.814;6.368;2023-07-20T11:24:09;2.85;;;1.95;;
15677;SDS011;7939;50.814;6.368;2023-07-20T11:26:42;2.05;;;1.92;;
15677;SDS011;7939;50.814;6.368;2023-07-20T11:29:09;4.32;;;1.83;;
15677;SDS011;7939;50.814;6.368;2023-07-20T11:31:36;1.88;;;1.77;;
15677;SDS011;7939;50.814;6.368;2023-07-20T11:34:03;2.38;;;1.80;;
15677;SDS011;7939;50.814;6.368;2023-07-20T11:36:30;3.35;;;2.40;;
15677;SDS011;7939;50.814;6.368;2023-07-20T11:38:58;2.78;;;2.58;;
15677;SDS011;7939;50.814;6.368;2023-07-20T11:41:26;2.65;;;1.48;;
15677;SDS011;7939;50.814;6.368;2023-07-20T11:43:53;1.80;;;1.48;;
15677;SDS011;7939;50.814;6.368;2023-07-20T11:46:20;1.73;;;1.58;;
15677;SDS011;7939;50.814;6.368;2023-07-20T11:48:47;1.98;;;1.80;;
15677;SDS011;7939;50.814;6.368;2023-07-20T11:51:14;2.78;;;2.10;;
15677;SDS011;7939;50.814;6.368;2023-07-20T11:53:41;2.60;;;1.90;;
15677;SDS011;7939;50.814;6.368;2023-07-20T11:56:08;2.10;;;1.90;;
15677;SDS011;7939;50.814;6.368;2023-07-20T11:58:35;2.20;;;1.90;;
15677;SDS011;7939;50.814;6.368;2023-07-20T12:01:07;2.30;;;2.10;;
15677;SDS011;7939;50.814;6.368;2023-07-20T12:03:35;2.55;;;2.15;;
15677;SDS011;7939;50.814;6.368;2023-07-20T12:06:06;1.77;;;1.67;;
15677;SDS011;7939;50.814;6.368;2023-07-20T12:08:33;2.33;;;1.73;;
15677;SDS011;7939;50.814;6.368;2023-07-20T12:10:59;2.63;;;1.45;;
15677;SDS011;7939;50.814;6.368;2023-07-20T12:13:36;4.65;;;1.90;;
15677;SDS011;7939;50.814;6.368;2023-07-20T12:16:08;2.83;;;2.30;;
15677;SDS011;7939;50.814;6.368;2023-07-20T12:18:36;2.05;;;1.85;;
15677;SDS011;7939;50.814;6.368;2023-07-20T12:21:02;2.30;;;1.85;;
15677;SDS011;7939;50.814;6.368;2023-07-20T12:23:34;2.10;;;1.80;;
15677;SDS011;7939;50.814;6.368;2023-07-20T12:26:02;1.80;;;1.70;;
15677;SDS011;7939;50.814;6.368;2023-07-20T12:28:30;2.38;;;1.52;;
15677;SDS011;7939;50.814;6.368;2023-07-20T12:30:59;2.50;;;1.38;;
15677;SDS011;7939;50.814;6.368;2023-07-20T12:33:26;1.83;;;1.55;;
15677;SDS011;7939;50.814;6.368;2023-07-20T12:35:52;1.58;;;1.48;;
15677;SDS011;7939;50.814;6.368;2023-07-20T12:38:21;2.15;;;1.48;;
15677;SDS011;7939;50.814;6.368;2023-07-20T12:40:49;1.83;;;1.58;;
15677;SDS011;7939;50.814;6.368;2023-07-20T12:43:16;1.52;;;1.23;;
15677;SDS011;7939;50.814;6.368;2023-07-20T12:45:42;2.03;;;1.40;;
15677;SDS011;7939;50.814;6.368;2023-07-20T12:48:10;1.50;;;1.40;;
15677;SDS011;7939;50.814;6.368;2023-07-20T12:50:37;1.88;;;1.15;;
15677;SDS011;7939;50.814;6.368;2023-07-20T12:53:03;2.53;;;1.33;;
15677;SDS011;7939;50.814;6.368;2023-07-20T12:55:30;1.27;;;1.17;;
15677;SDS011;7939;50.814;6.368;2023-07-20T12:57:58;1.25;;;1.00;;
15677;SDS011;7939;50.814;6.368;2023-07-20T13:00:24;1.33;;;1.23;;
15677;SDS011;7939;50.814;6.368;2023-07-20T13:02:51;1.77;;;1.05;;
15677;SDS011;7939;50.814;6.368;2023-07-20T13:05:19;4.43;;;1.20;;
15677;SDS011;7939;50.814;6.368;2023-07-20T13:07:46;2.60;;;1.38;;
15677;SDS011;7939;50.814;6.368;2023-07-20T13:10:13;1.88;;;1.00;;
15677;SDS011;7939;50.814;6.368;2023-07-20T13:12:39;2.17;;;1.13;;
15677;SDS011;7939;50.814;6.368;2023-07-20T13:15:06;1.20;;;1.10;;
15677;SDS011;7939;50.814;6.368;2023-07-20T13:17:34;3.05;;;1.00;;
15677;SDS011;7939;50.814;6.368;2023-07-20T13:20:01;2.00;;;0.90;;
15677;SDS011;7939;50.814;6.368;2023-07-20T13:22:31;2.83;;;1.20;;
15677;SDS011;7939;50.814;6.368;2023-07-20T13:24:57;1.27;;;1.17;;
15677;SDS011;7939;50.814;6.368;2023-07-20T13:27:24;1.20;;;1.10;;
15677;SDS011;7939;50.814;6.368;2023-07-20T13:29:51;1.20;;;1.05;;
15677;SDS011;7939;50.814;6.368;2023-07-20T13:32:18;1.30;;;0.90;;
15677;SDS011;7939;50.814;6.368;2023-07-20T13:34:45;1.08;;;0.98;;
15677;SDS011;7939;50.814;6.368;2023-07-20T13:37:13;2.83;;;1.10;;
15677;SDS011;7939;50.814;6.368;2023-07-20T13:39:42;0.80;;;0.80;;
15677;SDS011;7939;50.814;6.368;2023-07-20T13:42:09;0.65;;;0.65;;
15677;SDS011;7939;50.814;6.368;2023-07-20T13:44:37;1.10;;;1.00;;
15677;SDS011;7939;50.814;6.368;2023-07-20T13:47:05;2.47;;;1.00;;
15677;SDS011;7939;50.814;6.368;2023-07-20T13:49:32;3.53;;;1.50;;
15677;SDS011;7939;50.814;6.368;2023-07-20T13:51:58;3.25;;;1.70;;
15677;SDS011;7939;50.814;6.368;2023-07-20T13:54:26;2.00;;;1.80;;
15677;SDS011;7939;50.814;6.368;2023-07-20T13:56:54;6.50;;;2.10;;
15677;SDS011;7939;50.814;6.368;2023-07-20T13:59:20;3.13;;;1.90;;
15677;SDS011;7939;50.814;6.368;2023-07-20T14:01:47;4.68;;;2.50;;
15677;SDS011;7939;50.814;6.368;2023-07-20T14:04:14;3.33;;;2.08;;
15677;SDS011;7939;50.814;6.368;2023-07-20T14:06:42;2.70;;;2.00;;
15677;SDS011;7939;50.814;6.368;2023-07-20T14:09:08;3.65;;;2.20;;
15677;SDS011;7939;50.814;6.368;2023-07-20T14:11:35;2.78;;;2.05;;
15677;SDS011;7939;50.814;6.368;2023-07-20T14:14:03;2.72;;;1.80;;
15677;SDS011;7939;50.814;6.368;2023-07-20T14:16:30;2.05;;;1.95;;
15677;SDS011;7939;50.814;6.368;2023-07-20T14:18:57;2.92;;;1.90;;
15677;SDS011;7939;50.814;6.368;2023-07-20T14:21:24;4.55;;;1.75;;
15677;SDS011;7939;50.814;6.368;2023-07-20T14:23:51;2.17;;;1.80;;
15677;SDS011;7939;50.814;6.368;2023-07-20T14:26:18;3.08;;;1.70;;
15677;SDS011;7939;50.814;6.368;2023-07-20T14:28:45;1.90;;;1.10;;
15677;SDS011;7939;50.814;6.368;2023-07-20T14:31:13;1.17;;;1.08;;
15677;SDS011;7939;50.814;6.368;2023-07-20T14:33:40;1.15;;;1.02;;
15677;SDS011;7939;50.814;6.368;2023-07-20T14:36:07;1.15;;;1.05;;
15677;SDS011;7939;50.814;6.368;2023-07-20T14:38:34;1.40;;;1.00;;
15677;SDS011;7939;50.814;6.368;2023-07-20T14:41:01;1.35;;;1.00;;
15677;SDS011;7939;50.814;6.368;2023-07-20T14:43:28;1.80;;;1.13;;
15677;SDS011;7939;50.814;6.368;2023-07-20T14:45:54;1.13;;;1.02;;
15677;SDS011;7939;50.814;6.368;2023-07-20T14:48:22;1.20;;;0.90;;
15677;SDS011;7939;50.814;6.368;2023-07-20T14:50:49;0.90;;;0.90;;
15677;SDS011;7939;50.814;6.368;2023-07-20T14:53:16;1.98;;;0.90;;
15677;SDS011;7939;50.814;6.368;2023-07-20T14:55:42;1.60;;;1.50;;
15677;SDS011;7939;50.814;6.368;2023-07-20T14:58:09;1.40;;;1.27;;
15677;SDS011;7939;50.814;6.368;2023-07-20T15:00:37;1.27;;;1.02;;
15677;SDS011;7939;50.814;6.368;2023-07-20T15:03:04;1.80;;;1.10;;
15677;SDS011;7939;50.814;6.368;2023-07-20T15:05:32;1.75;;;1.40;;
15677;SDS011;7939;50.814;6.368;2023-07-20T15:08:01;1.25;;;1.15;;
15677;SDS011;7939;50.814;6.368;2023-07-20T15:10:27;1.10;;;0.90;;